sensor_id;sensor_type;location;lat;lon;timestamp;pressure;altitude;pressure_sealevel;temperature;humidity
66801;BME280;53703;50.326;19.122;2023-11-18T00:01:20;98702.50;;;19.79;47.25
66801;BME280;53703;50.326;19.122;2023-11-18T00:03:55;98701.15;;;19.78;47.08
66801;BME280;53703;50.326;19.122;2023-11-18T00:06:29;98708.05;;;19.75;47.42
66801;BME280;53703;50.326;19.122;2023-11-18T00:09:03;98709.04;;;19.78;47.23
66801;BME280;53703;50.326;19.122;2023-11-18T00:11:38;98710.92;;;19.77;47.13
66801;BME280;53703;50.326;19.122;2023-11-18T00:14:13;98710.56;;;19.72;47.25
66801;BME280;53703;50.326;19.122;2023-11-18T00:16:46;98708.05;;;19.72;47.21
66801;BME280;53703;50.326;19.122;2023-11-18T00:19:20;98710.31;;;19.71;47.20
66801;BME280;53703;50.326;19.122;2023-11-18T00:21:54;98714.30;;;19.73;47.20
66801;BME280;53703;50.326;19.122;2023-11-18T00:24:28;98719.11;;;19.75;47.28
66801;BME280;53703;50.326;19.122;2023-11-18T00:27:02;98715.17;;;19.83;46.91
66801;BME280;53703;50.326;19.122;2023-11-18T00:29:38;98718.48;;;19.82;46.89
66801;BME280;53703;50.326;19.122;2023-11-18T00:32:11;98719.14;;;19.76;47.03
66801;BME280;53703;50.326;19.122;2023-11-18T00:34:48;98721.80;;;19.72;47.20
66801;BME280;53703;50.326;19.122;2023-11-18T00:37:21;98719.65;;;19.78;46.90
66801;BME280;53703;50.326;19.122;2023-11-18T00:39:56;98720.33;;;19.77;46.96
66801;BME280;53703;50.326;19.122;2023-11-18T00:42:29;98722.35;;;19.71;46.99
66801;BME280;53703;50.326;19.122;2023-11-18T00:45:04;98724.36;;;19.73;47.02
66801;BME280;53703;50.326;19.122;2023-11-18T00:47:38;98726.59;;;19.78;46.82
66801;BME280;53703;50.326;19.122;2023-11-18T00:50:15;98724.96;;;19.75;46.93
66801;BME280;53703;50.326;19.122;2023-11-18T00:52:49;98725.09;;;19.77;47.04
66801;BME280;53703;50.326;19.122;2023-11-18T00:55:24;98723.76;;;19.74;47.00
66801;BME280;53703;50.326;19.122;2023-11-18T00:57:58;98726.80;;;19.76;47.02
66801;BME280;53703;50.326;19.122;2023-11-18T01:00:32;98724.08;;;19.78;46.71
66801;BME280;53703;50.326;19.122;2023-11-18T01:03:07;98721.15;;;19.78;46.76
66801;BME280;53703;50.326;19.122;2023-11-18T01:05:42;98717.33;;;19.77;46.82
66801;BME280;53703;50.326;19.122;2023-11-18T01:08:16;98713.38;;;19.80;46.79
66801;BME280;53703;50.326;19.122;2023-11-18T01:10:50;98718.59;;;19.80;46.69
66801;BME280;53703;50.326;19.122;2023-11-18T01:13:24;98719.33;;;19.78;46.80
66801;BME280;53703;50.326;19.122;2023-11-18T01:15:59;98721.55;;;19.78;46.55
66801;BME280;53703;50.326;19.122;2023-11-18T01:18:34;98719.84;;;19.73;46.75
66801;BME280;53703;50.326;19.122;2023-11-18T01:21:08;98716.89;;;19.72;46.97
66801;BME280;53703;50.326;19.122;2023-11-18T01:23:42;98717.33;;;19.73;46.73
66801;BME280;53703;50.326;19.122;2023-11-18T01:26:17;98712.19;;;19.67;47.02
66801;BME280;53703;50.326;19.122;2023-11-18T01:28:51;98710.62;;;19.71;46.78
66801;BME280;53703;50.326;19.122;2023-11-18T01:31:25;98710.58;;;19.72;46.71
66801;BME280;53703;50.326;19.122;2023-11-18T01:34:05;98710.70;;;19.68;46.79
66801;BME280;53703;50.326;19.122;2023-11-18T01:36:39;98705.83;;;19.65;46.83
66801;BME280;53703;50.326;19.122;2023-11-18T01:39:16;98705.30;;;19.67;46.90
66801;BME280;53703;50.326;19.122;2023-11-18T01:41:50;98706.30;;;19.69;46.63
66801;BME280;53703;50.326;19.122;2023-11-18T01:44:24;98708.05;;;19.65;46.75
66801;BME280;53703;50.326;19.122;2023-11-18T01:47:02;98703.34;;;19.67;46.60
66801;BME280;53703;50.326;19.122;2023-11-18T01:49:39;98705.73;;;19.71;46.49
66801;BME280;53703;50.326;19.122;2023-11-18T01:52:14;98698.38;;;19.75;46.50
66801;BME280;53703;50.326;19.122;2023-11-18T01:54:49;98699.39;;;19.74;46.57
66801;BME280;53703;50.326;19.122;2023-11-18T01:57:23;98702.97;;;19.71;46.57
66801;BME280;53703;50.326;19.122;2023-11-18T01:59:59;98698.46;;;19.75;46.44
66801;BME280;53703;50.326;19.122;2023-11-18T02:02:37;98699.31;;;19.74;46.43
66801;BME280;53703;50.326;19.122;2023-11-18T02:05:12;98701.23;;;19.75;46.35
66801;BME280;53703;50.326;19.122;2023-11-18T02:07:47;98704.02;;;19.69;46.51
66801;BME280;53703;50.326;19.122;2023-11-18T02:10:21;98706.23;;;19.69;46.60
66801;BME280;53703;50.326;19.122;2023-11-18T02:13:10;98707.11;;;19.73;46.37
66801;BME280;53703;50.326;19.122;2023-11-18T02:15:46;98706.23;;;19.69;46.64
66801;BME280;53703;50.326;19.122;2023-11-18T02:18:21;98710.00;;;19.67;46.55
66801;BME280;53703;50.326;19.122;2023-11-18T02:20:56;98714.98;;;19.64;46.52
66801;BME280;53703;50.326;19.122;2023-11-18T02:23:30;98717.75;;;19.64;46.68
66801;BME280;53703;50.326;19.122;2023-11-18T02:26:05;98719.11;;;19.64;46.62
66801;BME280;53703;50.326;19.122;2023-11-18T02:28:38;98719.73;;;19.64;46.43
66801;BME280;53703;50.326;19.122;2023-11-18T02:31:16;98727.20;;;19.62;46.52
66801;BME280;53703;50.326;19.122;2023-11-18T02:34:00;98724.77;;;19.60;46.45
66801;BME280;53703;50.326;19.122;2023-11-18T02:36:41;98728.98;;;19.57;46.50
66801;BME280;53703;50.326;19.122;2023-11-18T02:39:24;98725.94;;;19.59;46.42
66801;BME280;53703;50.326;19.122;2023-11-18T02:42:03;98723.67;;;19.57;46.52
66801;BME280;53703;50.326;19.122;2023-11-18T02:44:47;98723.66;;;19.53;46.51
66801;BME280;53703;50.326;19.122;2023-11-18T02:47:24;98728.38;;;19.52;46.48
66801;BME280;53703;50.326;19.122;2023-11-18T02:49:58;98729.82;;;19.52;46.56
66801;BME280;53703;50.326;19.122;2023-11-18T02:52:43;98733.59;;;19.51;46.65
66801;BME280;53703;50.326;19.122;2023-11-18T02:55:17;98734.88;;;19.49;46.53
66801;BME280;53703;50.326;19.122;2023-11-18T02:57:50;98736.59;;;19.55;46.41
66801;BME280;53703;50.326;19.122;2023-11-18T03:00:25;98740.73;;;19.43;46.50
66801;BME280;53703;50.326;19.122;2023-11-18T03:02:58;98741.88;;;19.45;46.47
66801;BME280;53703;50.326;19.122;2023-11-18T03:05:33;98744.27;;;19.49;46.38
66801;BME280;53703;50.326;19.122;2023-11-18T03:08:09;98747.16;;;19.47;46.28
66801;BME280;53703;50.326;19.122;2023-11-18T03:10:44;98747.54;;;19.50;46.33
66801;BME280;53703;50.326;19.122;2023-11-18T03:19:27;98747.81;;;19.54;46.01
66801;BME280;53703;50.326;19.122;2023-11-18T03:41:44;98757.08;;;19.45;46.28
66801;BME280;53703;50.326;19.122;2023-11-18T03:44:19;98760.55;;;19.45;46.16
66801;BME280;53703;50.326;19.122;2023-11-18T03:46:54;98758.55;;;19.47;46.25
66801;BME280;53703;50.326;19.122;2023-11-18T03:49:28;98763.51;;;19.40;46.24
66801;BME280;53703;50.326;19.122;2023-11-18T03:52:05;98769.45;;;19.44;46.19
66801;BME280;53703;50.326;19.122;2023-11-18T03:54:39;98769.04;;;19.40;46.25
66801;BME280;53703;50.326;19.122;2023-11-18T03:57:14;98774.04;;;19.40;46.35
66801;BME280;53703;50.326;19.122;2023-11-18T03:59:49;98778.35;;;19.33;46.33
66801;BME280;53703;50.326;19.122;2023-11-18T04:02:27;98775.98;;;19.38;46.14
66801;BME280;53703;50.326;19.122;2023-11-18T04:05:05;98780.10;;;19.39;46.20
66801;BME280;53703;50.326;19.122;2023-11-18T04:07:44;98781.41;;;19.38;46.14
66801;BME280;53703;50.326;19.122;2023-11-18T04:10:18;98787.31;;;19.36;46.08
66801;BME280;53703;50.326;19.122;2023-11-18T04:12:53;98788.17;;;19.30;46.26
66801;BME280;53703;50.326;19.122;2023-11-18T04:15:27;98789.00;;;19.29;46.32
66801;BME280;53703;50.326;19.122;2023-11-18T04:18:01;98788.42;;;19.28;46.34
66801;BME280;53703;50.326;19.122;2023-11-18T04:20:35;98791.39;;;19.27;46.22
66801;BME280;53703;50.326;19.122;2023-11-18T04:23:10;98792.52;;;19.27;46.32
66801;BME280;53703;50.326;19.122;2023-11-18T04:25:46;98796.14;;;19.21;46.30
66801;BME280;53703;50.326;19.122;2023-11-18T04:28:20;98795.14;;;19.22;46.25
66801;BME280;53703;50.326;19.122;2023-11-18T04:30:53;98790.71;;;19.28;46.13
66801;BME280;53703;50.326;19.122;2023-11-18T04:33:27;98788.75;;;19.29;46.18
66801;BME280;53703;50.326;19.122;2023-11-18T04:36:02;98787.38;;;19.19;46.36
66801;BME280;53703;50.326;19.122;2023-11-18T04:38:38;98781.66;;;19.23;46.32
66801;BME280;53703;50.326;19.122;2023-11-18T04:41:11;98782.91;;;19.25;46.26
66801;BME280;53703;50.326;19.122;2023-11-18T04:43:45;98783.50;;;19.21;46.36
66801;BME280;53703;50.326;19.122;2023-11-18T04:46:20;98786.05;;;19.22;46.44
66801;BME280;53703;50.326;19.122;2023-11-18T04:48:54;98783.85;;;19.23;46.42
66801;BME280;53703;50.326;19.122;2023-11-18T04:51:29;98783.96;;;19.24;46.35
66801;BME280;53703;50.326;19.122;2023-11-18T04:54:03;98784.73;;;19.26;46.32
66801;BME280;53703;50.326;19.122;2023-11-18T04:56:37;98786.14;;;19.25;46.21
66801;BME280;53703;50.326;19.122;2023-11-18T04:59:11;98785.29;;;19.23;46.36
66801;BME280;53703;50.326;19.122;2023-11-18T05:01:45;98783.88;;;19.27;46.22
66801;BME280;53703;50.326;19.122;2023-11-18T05:04:20;98783.48;;;19.27;46.33
66801;BME280;53703;50.326;19.122;2023-11-18T05:06:54;98781.88;;;19.20;46.58
66801;BME280;53703;50.326;19.122;2023-11-18T05:09:28;98779.52;;;19.20;46.31
66801;BME280;53703;50.326;19.122;2023-11-18T05:12:02;98780.05;;;19.22;46.39
66801;BME280;53703;50.326;19.122;2023-11-18T05:14:37;98785.08;;;19.18;46.55
66801;BME280;53703;50.326;19.122;2023-11-18T05:17:11;98792.11;;;19.18;46.35
66801;BME280;53703;50.326;19.122;2023-11-18T05:19:45;98794.59;;;19.19;46.39
66801;BME280;53703;50.326;19.122;2023-11-18T05:22:19;98791.52;;;19.19;46.42
66801;BME280;53703;50.326;19.122;2023-11-18T05:24:54;98795.70;;;19.17;46.39
66801;BME280;53703;50.326;19.122;2023-11-18T05:27:29;98797.23;;;19.18;46.30
66801;BME280;53703;50.326;19.122;2023-11-18T05:30:04;98797.02;;;19.12;46.32
66801;BME280;53703;50.326;19.122;2023-11-18T05:32:38;98796.52;;;19.15;46.28
66801;BME280;53703;50.326;19.122;2023-11-18T05:35:13;98802.10;;;19.13;46.41
66801;BME280;53703;50.326;19.122;2023-11-18T05:37:46;98804.27;;;19.15;46.49
66801;BME280;53703;50.326;19.122;2023-11-18T05:40:20;98808.27;;;19.10;46.40
66801;BME280;53703;50.326;19.122;2023-11-18T05:42:55;98810.04;;;19.15;46.34
66801;BME280;53703;50.326;19.122;2023-11-18T05:45:31;98811.92;;;19.11;46.28
66801;BME280;53703;50.326;19.122;2023-11-18T05:48:16;98814.66;;;19.07;46.57
66801;BME280;53703;50.326;19.122;2023-11-18T05:50:50;98816.59;;;19.11;46.30
66801;BME280;53703;50.326;19.122;2023-11-18T05:53:23;98823.40;;;19.08;46.45
66801;BME280;53703;50.326;19.122;2023-11-18T05:56:07;98828.84;;;19.03;46.48
66801;BME280;53703;50.326;19.122;2023-11-18T06:07:36;98839.09;;;19.07;46.49
66801;BME280;53703;50.326;19.122;2023-11-18T06:10:12;98850.61;;;19.07;46.48
66801;BME280;53703;50.326;19.122;2023-11-18T06:12:46;98856.63;;;19.00;46.52
66801;BME280;53703;50.326;19.122;2023-11-18T06:18:24;98864.73;;;19.03;46.57
66801;BME280;53703;50.326;19.122;2023-11-18T06:21:03;98868.52;;;19.04;46.64
66801;BME280;53703;50.326;19.122;2023-11-18T06:23:37;98874.91;;;19.03;46.61
66801;BME280;53703;50.326;19.122;2023-11-18T06:26:11;98875.15;;;19.05;46.51
66801;BME280;53703;50.326;19.122;2023-11-18T06:28:47;98879.32;;;19.05;46.30
66801;BME280;53703;50.326;19.122;2023-11-18T06:31:21;98884.71;;;18.98;46.53
66801;BME280;53703;50.326;19.122;2023-11-18T06:33:56;98883.80;;;18.96;46.54
66801;BME280;53703;50.326;19.122;2023-11-18T06:36:30;98887.70;;;19.03;46.34
66801;BME280;53703;50.326;19.122;2023-11-18T06:39:04;98890.44;;;19.00;46.50
66801;BME280;53703;50.326;19.122;2023-11-18T06:41:38;98894.33;;;18.99;46.49
66801;BME280;53703;50.326;19.122;2023-11-18T06:44:21;98896.58;;;19.01;46.42
66801;BME280;53703;50.326;19.122;2023-11-18T06:46:56;98904.95;;;18.98;46.36
66801;BME280;53703;50.326;19.122;2023-11-18T06:49:30;98909.48;;;18.96;46.48
66801;BME280;53703;50.326;19.122;2023-11-18T06:52:07;98920.14;;;18.99;46.45
66801;BME280;53703;50.326;19.122;2023-11-18T06:54:45;98922.82;;;18.96;46.39
66801;BME280;53703;50.326;19.122;2023-11-18T06:57:19;98922.14;;;18.97;46.32
66801;BME280;53703;50.326;19.122;2023-11-18T06:59:53;98930.04;;;18.92;46.58
66801;BME280;53703;50.326;19.122;2023-11-18T07:02:27;98928.73;;;18.90;46.43
66801;BME280;53703;50.326;19.122;2023-11-18T07:05:01;98931.52;;;18.89;46.33
66801;BME280;53703;50.326;19.122;2023-11-18T07:07:35;98931.54;;;18.92;46.22
66801;BME280;53703;50.326;19.122;2023-11-18T07:10:10;98931.91;;;18.91;46.33
66801;BME280;53703;50.326;19.122;2023-11-18T07:12:45;98928.31;;;18.92;46.21
66801;BME280;53703;50.326;19.122;2023-11-18T07:15:20;98932.59;;;18.90;46.11
66801;BME280;53703;50.326;19.122;2023-11-18T07:17:53;98932.83;;;18.90;46.27
66801;BME280;53703;50.326;19.122;2023-11-18T07:20:28;98935.27;;;18.90;46.16
66801;BME280;53703;50.326;19.122;2023-11-18T07:23:02;98940.35;;;18.88;46.40
66801;BME280;53703;50.326;19.122;2023-11-18T07:25:36;98936.96;;;18.88;46.12
66801;BME280;53703;50.326;19.122;2023-11-18T07:28:26;98934.70;;;18.87;46.30
66801;BME280;53703;50.326;19.122;2023-11-18T07:31:19;98934.91;;;18.83;46.38
66801;BME280;53703;50.326;19.122;2023-11-18T07:34:01;98935.93;;;18.82;46.44
66801;BME280;53703;50.326;19.122;2023-11-18T07:36:45;98934.98;;;18.82;46.33
66801;BME280;53703;50.326;19.122;2023-11-18T07:39:19;98938.66;;;18.84;46.27
66801;BME280;53703;50.326;19.122;2023-11-18T07:41:57;98934.88;;;18.90;46.18
66801;BME280;53703;50.326;19.122;2023-11-18T07:44:31;98931.86;;;18.83;46.27
66801;BME280;53703;50.326;19.122;2023-11-18T07:47:05;98931.71;;;18.78;46.41
66801;BME280;53703;50.326;19.122;2023-11-18T07:49:39;98936.35;;;18.80;46.49
66801;BME280;53703;50.326;19.122;2023-11-18T07:52:13;98942.27;;;18.78;46.89
66801;BME280;53703;50.326;19.122;2023-11-18T07:54:47;98943.53;;;18.85;46.49
66801;BME280;53703;50.326;19.122;2023-11-18T07:57:24;98947.79;;;18.80;46.62
66801;BME280;53703;50.326;19.122;2023-11-18T07:59:58;98948.22;;;18.79;47.27
66801;BME280;53703;50.326;19.122;2023-11-18T08:02:38;98947.13;;;18.82;47.34
66801;BME280;53703;50.326;19.122;2023-11-18T08:05:12;98947.68;;;18.82;47.54
66801;BME280;53703;50.326;19.122;2023-11-18T08:07:48;98947.73;;;18.81;47.07
66801;BME280;53703;50.326;19.122;2023-11-18T08:10:21;98950.52;;;18.76;47.28
66801;BME280;53703;50.326;19.122;2023-11-18T08:12:57;98953.82;;;18.78;47.44
66801;BME280;53703;50.326;19.122;2023-11-18T08:15:31;98952.25;;;18.79;46.86
66801;BME280;53703;50.326;19.122;2023-11-18T08:18:04;98956.92;;;18.79;46.83
66801;BME280;53703;50.326;19.122;2023-11-18T08:20:39;98966.13;;;18.73;47.09
66801;BME280;53703;50.326;19.122;2023-11-18T08:23:13;98972.95;;;18.69;47.04
66801;BME280;53703;50.326;19.122;2023-11-18T08:25:47;98973.95;;;18.66;47.14
66801;BME280;53703;50.326;19.122;2023-11-18T08:28:23;98973.85;;;18.65;47.04
66801;BME280;53703;50.326;19.122;2023-11-18T08:30:56;98973.45;;;18.67;47.01
66801;BME280;53703;50.326;19.122;2023-11-18T08:33:30;98978.86;;;18.68;46.99
66801;BME280;53703;50.326;19.122;2023-11-18T08:36:07;98977.38;;;18.58;47.23
66801;BME280;53703;50.326;19.122;2023-11-18T08:38:42;98984.80;;;18.53;47.04
66801;BME280;53703;50.326;19.122;2023-11-18T08:41:17;98986.80;;;18.49;47.31
66801;BME280;53703;50.326;19.122;2023-11-18T08:43:53;98990.31;;;18.58;46.87
66801;BME280;53703;50.326;19.122;2023-11-18T08:46:29;98999.16;;;18.56;47.01
66801;BME280;53703;50.326;19.122;2023-11-18T08:49:02;99003.27;;;18.49;47.02
66801;BME280;53703;50.326;19.122;2023-11-18T08:51:43;99002.94;;;18.50;47.01
66801;BME280;53703;50.326;19.122;2023-11-18T08:54:16;99005.42;;;18.49;47.07
66801;BME280;53703;50.326;19.122;2023-11-18T08:56:57;99007.59;;;18.48;46.93
66801;BME280;53703;50.326;19.122;2023-11-18T08:59:31;99015.98;;;18.54;46.82
66801;BME280;53703;50.326;19.122;2023-11-18T09:02:05;99018.75;;;18.49;47.08
66801;BME280;53703;50.326;19.122;2023-11-18T09:04:39;99031.75;;;18.45;47.11
66801;BME280;53703;50.326;19.122;2023-11-18T09:07:15;99037.36;;;18.48;47.03
66801;BME280;53703;50.326;19.122;2023-11-18T09:09:53;99041.64;;;18.55;46.88
66801;BME280;53703;50.326;19.122;2023-11-18T09:12:39;99041.52;;;18.54;46.99
66801;BME280;53703;50.326;19.122;2023-11-18T09:15:19;99042.27;;;18.48;47.26
66801;BME280;53703;50.326;19.122;2023-11-18T09:20:42;99048.89;;;18.51;47.05
66801;BME280;53703;50.326;19.122;2023-11-18T09:23:31;99054.67;;;18.55;46.97
66801;BME280;53703;50.326;19.122;2023-11-18T09:26:09;99059.63;;;18.52;47.18
66801;BME280;53703;50.326;19.122;2023-11-18T09:28:43;99061.49;;;18.47;47.27
66801;BME280;53703;50.326;19.122;2023-11-18T09:31:19;99059.45;;;18.47;47.17
66801;BME280;53703;50.326;19.122;2023-11-18T09:33:54;99063.58;;;18.48;47.14
66801;BME280;53703;50.326;19.122;2023-11-18T09:39:41;99071.52;;;18.45;47.08
66801;BME280;53703;50.326;19.122;2023-11-18T09:42:20;99074.76;;;18.47;47.13
66801;BME280;53703;50.326;19.122;2023-11-18T09:44:57;99080.75;;;18.44;47.07
66801;BME280;53703;50.326;19.122;2023-11-18T09:47:37;99088.46;;;18.30;47.05
66801;BME280;53703;50.326;19.122;2023-11-18T09:50:18;99091.09;;;18.40;47.74
66801;BME280;53703;50.326;19.122;2023-11-18T09:53:00;99089.89;;;18.44;47.75
66801;BME280;53703;50.326;19.122;2023-11-18T09:55:45;99100.11;;;18.48;48.12
66801;BME280;53703;50.326;19.122;2023-11-18T09:58:22;99101.59;;;18.38;48.65
66801;BME280;53703;50.326;19.122;2023-11-18T10:00:59;99108.25;;;18.36;49.41
66801;BME280;53703;50.326;19.122;2023-11-18T10:03:35;99112.39;;;18.46;48.10
66801;BME280;53703;50.326;19.122;2023-11-18T10:06:11;99111.68;;;18.49;47.31
66801;BME280;53703;50.326;19.122;2023-11-18T10:08:47;99112.04;;;18.43;50.90
66801;BME280;53703;50.326;19.122;2023-11-18T10:11:22;99113.84;;;18.41;49.62
66801;BME280;53703;50.326;19.122;2023-11-18T10:13:56;99118.89;;;18.36;50.33
66801;BME280;53703;50.326;19.122;2023-11-18T10:16:32;99120.92;;;18.28;51.78
66801;BME280;53703;50.326;19.122;2023-11-18T10:19:06;99114.55;;;18.38;50.24
66801;BME280;53703;50.326;19.122;2023-11-18T10:21:42;99112.11;;;18.45;50.68
66801;BME280;53703;50.326;19.122;2023-11-18T10:24:15;99118.52;;;18.41;50.16
66801;BME280;53703;50.326;19.122;2023-11-18T10:26:58;99121.79;;;18.44;49.54
66801;BME280;53703;50.326;19.122;2023-11-18T10:29:33;99122.58;;;18.35;49.41
66801;BME280;53703;50.326;19.122;2023-11-18T10:32:09;99124.91;;;18.43;49.19
66801;BME280;53703;50.326;19.122;2023-11-18T10:34:57;99134.77;;;18.41;49.16
66801;BME280;53703;50.326;19.122;2023-11-18T10:37:31;99140.04;;;18.42;48.45
66801;BME280;53703;50.326;19.122;2023-11-18T10:40:10;99143.85;;;18.45;48.64
66801;BME280;53703;50.326;19.122;2023-11-18T10:42:46;99142.02;;;18.45;48.25
66801;BME280;53703;50.326;19.122;2023-11-18T10:45:27;99144.44;;;18.35;46.67
66801;BME280;53703;50.326;19.122;2023-11-18T10:48:02;99146.11;;;18.35;46.77
66801;BME280;53703;50.326;19.122;2023-11-18T10:50:37;99150.95;;;18.36;47.03
66801;BME280;53703;50.326;19.122;2023-11-18T10:53:10;99153.84;;;18.37;47.48
66801;BME280;53703;50.326;19.122;2023-11-18T10:55:48;99156.77;;;18.40;49.28
66801;BME280;53703;50.326;19.122;2023-11-18T10:58:23;99163.80;;;18.42;48.88
66801;BME280;53703;50.326;19.122;2023-11-18T11:00:57;99168.15;;;18.40;48.53
66801;BME280;53703;50.326;19.122;2023-11-18T11:03:32;99171.98;;;18.41;48.14
66801;BME280;53703;50.326;19.122;2023-11-18T11:06:18;99176.95;;;18.37;48.29
66801;BME280;53703;50.326;19.122;2023-11-18T11:08:56;99180.48;;;18.31;48.26
66801;BME280;53703;50.326;19.122;2023-11-18T11:11:35;99179.92;;;18.29;48.09
66801;BME280;53703;50.326;19.122;2023-11-18T11:14:14;99183.76;;;18.32;47.98
66801;BME280;53703;50.326;19.122;2023-11-18T11:16:54;99179.55;;;18.34;47.89
66801;BME280;53703;50.326;19.122;2023-11-18T11:19:33;99183.60;;;18.30;47.72
66801;BME280;53703;50.326;19.122;2023-11-18T11:22:20;99183.10;;;18.32;47.73
66801;BME280;53703;50.326;19.122;2023-11-18T11:25:09;99182.00;;;18.32;47.56
66801;BME280;53703;50.326;19.122;2023-11-18T11:27:56;99187.70;;;18.33;47.44
66801;BME280;53703;50.326;19.122;2023-11-18T11:30:42;99190.55;;;18.28;47.51
66801;BME280;53703;50.326;19.122;2023-11-18T11:33:25;99194.94;;;18.29;47.57
66801;BME280;53703;50.326;19.122;2023-11-18T11:36:06;99193.81;;;18.27;47.53
66801;BME280;53703;50.326;19.122;2023-11-18T11:38:45;99197.52;;;18.29;47.39
66801;BME280;53703;50.326;19.122;2023-11-18T11:41:21;99202.37;;;18.30;47.38
66801;BME280;53703;50.326;19.122;2023-11-18T11:43:59;99199.34;;;18.31;47.29
66801;BME280;53703;50.326;19.122;2023-11-18T11:46:34;99205.80;;;18.31;46.77
66801;BME280;53703;50.326;19.122;2023-11-18T11:49:11;99208.61;;;18.30;47.53
66801;BME280;53703;50.326;19.122;2023-11-18T11:51:57;99207.94;;;18.26;48.23
66801;BME280;53703;50.326;19.122;2023-11-18T11:54:41;99212.62;;;18.25;48.35
66801;BME280;53703;50.326;19.122;2023-11-18T11:57:17;99213.27;;;18.25;48.31
66801;BME280;53703;50.326;19.122;2023-11-18T12:00:00;99217.62;;;18.28;47.70
66801;BME280;53703;50.326;19.122;2023-11-18T12:02:52;99218.35;;;18.31;47.85
66801;BME280;53703;50.326;19.122;2023-11-18T12:05:29;99220.59;;;18.36;47.92
66801;BME280;53703;50.326;19.122;2023-11-18T12:08:09;99230.75;;;18.25;48.47
66801;BME280;53703;50.326;19.122;2023-11-18T12:10:53;99233.06;;;18.38;48.25
66801;BME280;53703;50.326;19.122;2023-11-18T12:13:28;99234.39;;;18.33;48.93
66801;BME280;53703;50.326;19.122;2023-11-18T12:16:08;99235.51;;;18.31;49.37
66801;BME280;53703;50.326;19.122;2023-11-18T12:18:43;99235.91;;;18.34;50.75
66801;BME280;53703;50.326;19.122;2023-11-18T12:21:58;99240.08;;;18.29;51.98
66801;BME280;53703;50.326;19.122;2023-11-18T12:24:33;99240.48;;;18.27;51.03
66801;BME280;53703;50.326;19.122;2023-11-18T12:27:07;99243.89;;;18.32;49.76
66801;BME280;53703;50.326;19.122;2023-11-18T12:29:45;99247.45;;;18.33;49.88
66801;BME280;53703;50.326;19.122;2023-11-18T12:32:58;99248.73;;;18.32;49.54
66801;BME280;53703;50.326;19.122;2023-11-18T12:35:46;99255.76;;;18.27;49.24
66801;BME280;53703;50.326;19.122;2023-11-18T12:41:52;99261.09;;;18.26;48.92
66801;BME280;53703;50.326;19.122;2023-11-18T12:44:34;99266.14;;;18.30;49.07
66801;BME280;53703;50.326;19.122;2023-11-18T12:47:14;99261.43;;;18.37;48.95
66801;BME280;53703;50.326;19.122;2023-11-18T12:49:51;99271.39;;;18.33;49.43
66801;BME280;53703;50.326;19.122;2023-11-18T12:52:27;99274.44;;;18.34;49.51
66801;BME280;53703;50.326;19.122;2023-11-18T12:55:01;99274.81;;;18.31;49.06
66801;BME280;53703;50.326;19.122;2023-11-18T12:57:47;99276.95;;;18.27;48.99
66801;BME280;53703;50.326;19.122;2023-11-18T13:00:24;99274.71;;;18.31;49.22
66801;BME280;53703;50.326;19.122;2023-11-18T13:03:00;99278.48;;;18.47;48.45
66801;BME280;53703;50.326;19.122;2023-11-18T13:05:34;99281.35;;;18.52;48.71
66801;BME280;53703;50.326;19.122;2023-11-18T13:08:09;99274.73;;;18.53;48.99
66801;BME280;53703;50.326;19.122;2023-11-18T13:10:43;99278.69;;;18.59;49.24
66801;BME280;53703;50.326;19.122;2023-11-18T13:13:18;99284.18;;;18.52;51.80
66801;BME280;53703;50.326;19.122;2023-11-18T13:15:52;99281.73;;;18.52;51.06
66801;BME280;53703;50.326;19.122;2023-11-18T13:18:27;99288.04;;;18.54;50.14
66801;BME280;53703;50.326;19.122;2023-11-18T13:21:01;99293.80;;;18.56;49.96
66801;BME280;53703;50.326;19.122;2023-11-18T13:23:36;99300.97;;;18.55;49.98
66801;BME280;53703;50.326;19.122;2023-11-18T13:26:10;99302.30;;;18.60;49.11
66801;BME280;53703;50.326;19.122;2023-11-18T13:28:45;99308.45;;;18.59;48.93
66801;BME280;53703;50.326;19.122;2023-11-18T13:31:19;99315.04;;;18.66;48.67
66801;BME280;53703;50.326;19.122;2023-11-18T13:33:53;99313.55;;;18.63;48.65
66801;BME280;53703;50.326;19.122;2023-11-18T13:36:27;99319.69;;;18.68;48.55
66801;BME280;53703;50.326;19.122;2023-11-18T13:39:01;99315.13;;;18.71;48.56
66801;BME280;53703;50.326;19.122;2023-11-18T13:41:35;99322.17;;;18.76;48.05
66801;BME280;53703;50.326;19.122;2023-11-18T13:44:09;99323.52;;;18.69;48.21
66801;BME280;53703;50.326;19.122;2023-11-18T13:46:45;99319.58;;;18.67;48.10
66801;BME280;53703;50.326;19.122;2023-11-18T13:49:23;99325.16;;;18.69;48.00
66801;BME280;53703;50.326;19.122;2023-11-18T13:52:04;99330.76;;;18.71;47.85
66801;BME280;53703;50.326;19.122;2023-11-18T13:54:39;99329.40;;;18.72;47.74
66801;BME280;53703;50.326;19.122;2023-11-18T13:57:15;99328.73;;;18.74;47.57
66801;BME280;53703;50.326;19.122;2023-11-18T13:59:50;99332.20;;;18.78;47.63
66801;BME280;53703;50.326;19.122;2023-11-18T14:02:24;99340.43;;;18.78;47.48
66801;BME280;53703;50.326;19.122;2023-11-18T14:04:58;99343.34;;;18.77;47.36
66801;BME280;53703;50.326;19.122;2023-11-18T14:07:36;99347.77;;;18.76;47.52
66801;BME280;53703;50.326;19.122;2023-11-18T14:10:12;99341.59;;;18.80;47.16
66801;BME280;53703;50.326;19.122;2023-11-18T14:15:40;99342.70;;;18.84;47.26
66801;BME280;53703;50.326;19.122;2023-11-18T14:18:17;99346.98;;;18.78;46.72
66801;BME280;53703;50.326;19.122;2023-11-18T14:20:51;99344.27;;;18.73;47.47
66801;BME280;53703;50.326;19.122;2023-11-18T14:23:25;99347.14;;;18.86;46.66
66801;BME280;53703;50.326;19.122;2023-11-18T14:25:59;99347.78;;;18.98;47.17
66801;BME280;53703;50.326;19.122;2023-11-18T14:28:33;99353.76;;;18.88;47.29